createdAt,value
2022-09-14T00:00:46.343Z,75.18
2022-09-14T00:03:36.096Z,75.78
2022-09-14T00:06:25.137Z,75.19
2022-09-14T00:09:08.403Z,76.47
2022-09-14T00:11:57.112Z,75.92
2022-09-14T00:14:48.070Z,75.90
2022-09-14T00:17:36.414Z,75.97
2022-09-14T00:20:19.132Z,75.49
2022-09-14T00:23:01.859Z,76.04
2022-09-14T00:25:51.100Z,76.13
2022-09-14T00:28:37.987Z,76.18
2022-09-14T00:31:28.151Z,76.55
2022-09-14T00:34:22.129Z,76.53
2022-09-14T00:37:12.106Z,77.21
2022-09-14T00:40:01.589Z,76.91
2022-09-14T00:42:44.177Z,77.07
2022-09-14T00:45:34.142Z,76.68
2022-09-14T00:48:24.141Z,76.75
2022-09-14T00:51:13.159Z,76.92
2022-09-14T00:53:56.477Z,77.32
2022-09-14T00:56:45.153Z,77.12
2022-09-14T00:59:39.141Z,76.67
2022-09-14T01:02:31.201Z,76.72
2022-09-14T01:05:21.109Z,77.13
2022-09-14T01:08:10.015Z,76.47
2022-09-14T01:11:14.151Z,77.18
2022-09-14T01:14:16.103Z,76.58
2022-09-14T01:17:11.105Z,77.63
2022-09-14T01:19:58.597Z,77.14
2022-09-14T01:23:01.121Z,76.61
2022-09-14T01:26:05.099Z,77.50
2022-09-14T01:29:07.477Z,76.93
2022-09-14T01:32:31.095Z,76.75
2022-09-14T01:35:20.534Z,76.62
2022-09-14T01:38:09.105Z,77.56
2022-09-14T01:40:55.455Z,76.87
2022-09-14T01:44:05.144Z,77.12
2022-09-14T01:46:58.464Z,77.26
2022-09-14T01:49:53.837Z,76.19
2022-09-14T01:52:46.578Z,76.14
2022-09-14T01:56:09.015Z,76.54
2022-09-14T01:59:26.407Z,76.70
2022-09-14T02:02:46.149Z,76.33
2022-09-14T02:05:43.107Z,76.35
2022-09-14T02:08:29.795Z,76.42
2022-09-14T02:11:19.180Z,76.15
2022-09-14T02:14:15.199Z,75.35
2022-09-14T02:17:13.159Z,75.43
2022-09-14T02:20:01.308Z,75.07
2022-09-14T02:22:50.080Z,75.35
2022-09-14T02:25:42.304Z,73.50
2022-09-14T02:28:27.192Z,72.97
2022-09-14T02:31:27.640Z,72.10
2022-09-14T02:34:24.146Z,72.50
2022-09-14T02:37:23.503Z,71.15
2022-09-14T02:40:30.221Z,71.10
2022-09-14T02:43:30.304Z,71.27
2022-09-14T02:46:28.147Z,71.10
2022-09-14T02:49:49.075Z,69.78
2022-09-14T02:52:52.171Z,70.43
2022-09-14T02:55:39.665Z,69.07
2022-09-14T02:58:29.148Z,69.94
2022-09-14T03:01:21.227Z,68.37
2022-09-14T03:04:03.434Z,68.68
2022-09-14T03:06:52.146Z,68.82
2022-09-14T03:09:34.389Z,68.61
2022-09-14T03:12:23.081Z,66.96
2022-09-14T03:15:18.932Z,68.16
2022-09-14T03:18:15.119Z,66.69
2022-09-14T03:21:17.431Z,67.14
2022-09-14T03:24:03.147Z,66.38
2022-09-14T03:26:53.308Z,68.09
2022-09-14T03:29:36.119Z,65.52
2022-09-14T03:32:25.508Z,66.40
2022-09-14T03:35:08.140Z,67.07
2022-09-14T03:37:50.349Z,66.86
2022-09-14T03:40:39.119Z,67.56
2022-09-14T03:43:28.852Z,66.95
2022-09-14T03:46:27.589Z,66.30
2022-09-14T03:49:16.104Z,67.42
2022-09-14T03:51:59.873Z,68.14
2022-09-14T03:54:49.141Z,66.64
2022-09-14T03:57:31.503Z,65.00
2022-09-14T04:00:21.148Z,64.59
2022-09-14T04:03:04.343Z,66.60
2022-09-14T04:06:04.158Z,65.15
2022-09-14T04:08:53.049Z,64.59
2022-09-14T04:11:43.157Z,62.63
2022-09-14T04:14:32.962Z,62.98
2022-09-14T04:17:30.004Z,63.58
2022-09-14T04:20:29.080Z,64.31
2022-09-14T04:23:21.859Z,63.24
2022-09-14T04:26:04.407Z,59.33
2022-09-14T04:28:54.089Z,61.23
2022-09-14T04:31:36.513Z,60.88
2022-09-14T04:34:27.107Z,58.40
2022-09-14T04:37:13.948Z,56.94
2022-09-14T04:40:04.134Z,59.73
2022-09-14T04:42:46.483Z,59.87
2022-09-14T04:45:35.148Z,60.38
2022-09-14T04:48:17.722Z,59.95
2022-09-14T04:51:10.147Z,56.21
2022-09-14T04:53:59.871Z,54.46
2022-09-14T04:56:50.164Z,54.85
2022-09-14T04:59:35.734Z,52.47
2022-09-14T05:02:27.219Z,53.97
2022-09-14T05:05:16.187Z,51.69
2022-09-14T05:08:05.178Z,55.02
2022-09-14T05:10:48.181Z,52.29
2022-09-14T05:13:40.170Z,54.56
2022-09-14T05:16:25.586Z,52.86
2022-09-14T05:19:23.066Z,51.85
2022-09-14T05:22:14.697Z,51.71
2022-09-14T05:25:03.154Z,54.29
2022-09-14T05:27:47.983Z,55.18
2022-09-14T05:30:38.707Z,54.76
2022-09-14T05:36:25.547Z,56.96
2022-09-14T05:39:23.286Z,58.07
2022-09-14T05:42:06.500Z,57.20
2022-09-14T05:44:57.172Z,58.53
2022-09-14T05:48:04.807Z,60.61
2022-09-14T05:50:56.708Z,59.56
2022-09-14T05:53:49.216Z,59.56
2022-09-14T05:56:35.900Z,61.01
2022-09-14T05:59:29.064Z,60.40
2022-09-14T06:02:24.968Z,58.28
2022-09-14T06:05:09.753Z,61.28
2022-09-14T06:08:02.173Z,62.03
2022-09-14T06:10:44.549Z,60.06
2022-09-14T06:13:50.174Z,62.80
2022-09-14T06:16:44.536Z,64.08
2022-09-14T06:19:34.209Z,62.58
2022-09-14T06:22:16.483Z,59.02
2022-09-14T06:25:06.176Z,61.70
2022-09-14T06:27:51.509Z,61.06
2022-09-14T06:30:45.917Z,61.20
2022-09-14T06:33:31.220Z,58.92
2022-09-14T06:36:22.070Z,58.15
2022-09-14T06:39:09.563Z,57.65
2022-09-14T06:42:00.199Z,55.53
2022-09-14T06:44:47.243Z,55.21
2022-09-14T06:47:41.087Z,54.00
2022-09-14T06:50:26.589Z,55.99
2022-09-14T06:53:18.192Z,58.51
2022-09-14T06:56:01.619Z,58.27
2022-09-14T06:58:51.252Z,59.37
2022-09-14T07:01:34.661Z,59.86
2022-09-14T07:04:28.817Z,53.70
2022-09-14T07:07:11.534Z,56.67
2022-09-14T07:10:00.128Z,55.11
2022-09-14T07:12:42.420Z,54.67
2022-09-14T07:16:06.970Z,54.64
2022-09-14T07:18:57.544Z,54.20
2022-09-14T07:22:07.391Z,52.67
2022-09-14T07:25:03.261Z,54.49
2022-09-14T07:27:53.509Z,54.30
2022-09-14T07:30:45.727Z,53.74
2022-09-14T07:33:29.627Z,52.45
2022-09-14T07:36:24.442Z,52.27
2022-09-14T07:39:12.944Z,54.35
2022-09-14T07:42:08.956Z,52.55
2022-09-14T07:44:55.408Z,52.90
2022-09-14T07:47:47.479Z,52.97
2022-09-14T07:50:38.565Z,52.50
2022-09-14T07:53:29.083Z,54.28
2022-09-14T07:56:14.657Z,51.50
2022-09-14T07:59:30.783Z,52.40
2022-09-14T08:02:21.230Z,53.25
2022-09-14T08:05:04.369Z,53.98
2022-09-14T08:07:56.853Z,53.31
2022-09-14T08:10:39.431Z,53.21
2022-09-14T08:13:30.204Z,52.97
2022-09-14T08:16:23.290Z,51.90
2022-09-14T08:19:09.036Z,53.50
2022-09-14T08:22:00.732Z,52.91
2022-09-14T08:25:01.097Z,55.21
2022-09-14T08:27:53.085Z,53.74
2022-09-14T08:30:35.715Z,55.49
2022-09-14T08:33:25.518Z,55.48
2022-09-14T08:36:14.918Z,58.22
2022-09-14T08:39:03.507Z,58.28
2022-09-14T08:42:02.208Z,57.75
2022-09-14T08:45:14.383Z,59.95
2022-09-14T08:47:58.964Z,57.68
2022-09-14T08:50:44.215Z,57.02
2022-09-14T08:53:35.248Z,58.06
2022-09-14T08:56:33.187Z,57.79
2022-09-14T08:59:54.909Z,54.87
2022-09-14T09:03:38.887Z,57.84
2022-09-14T09:06:55.004Z,58.10
2022-09-14T09:10:00.518Z,57.16
2022-09-14T09:12:53.171Z,56.65
2022-09-14T09:16:03.255Z,57.71
2022-09-14T09:19:05.916Z,56.34
2022-09-14T09:21:50.556Z,56.43
2022-09-14T09:25:00.035Z,55.81
2022-09-14T09:27:42.557Z,55.77
2022-09-14T09:30:32.176Z,56.93
2022-09-14T09:33:27.301Z,56.90
2022-09-14T09:36:30.188Z,57.96
2022-09-14T09:39:13.385Z,57.05
2022-09-14T09:42:21.174Z,56.88
2022-09-14T09:45:07.041Z,57.49
2022-09-14T09:47:57.174Z,56.10
2022-09-14T09:50:51.309Z,57.39
2022-09-14T09:53:40.168Z,56.71
2022-09-14T09:56:36.550Z,58.32
2022-09-14T09:59:43.141Z,56.33
2022-09-14T10:02:40.558Z,60.28
2022-09-14T10:05:22.935Z,59.19
2022-09-14T10:08:23.087Z,59.95
2022-09-14T10:11:05.668Z,59.26
2022-09-14T10:13:56.218Z,58.01
2022-09-14T10:16:49.487Z,56.74
2022-09-14T10:19:40.170Z,58.59
2022-09-14T10:22:42.411Z,58.16
2022-09-14T10:25:41.673Z,56.56
2022-09-14T10:28:46.092Z,60.00
2022-09-14T10:31:32.990Z,55.97
2022-09-14T10:34:33.178Z,57.66
2022-09-14T10:37:37.132Z,57.20
2022-09-14T10:40:24.286Z,59.01
2022-09-14T10:43:46.180Z,59.66
2022-09-14T10:47:19.095Z,61.19
2022-09-14T10:50:37.943Z,62.64
2022-09-14T10:53:42.190Z,61.00
2022-09-14T10:56:49.066Z,60.23
2022-09-14T10:59:40.165Z,60.92
2022-09-14T11:02:54.287Z,62.47
2022-09-14T11:05:44.380Z,63.50
2022-09-14T11:08:45.170Z,62.72
2022-09-14T11:11:47.461Z,61.50
2022-09-14T11:14:49.193Z,62.34
2022-09-14T11:17:50.168Z,61.72
2022-09-14T11:21:09.520Z,60.08
2022-09-14T11:24:06.185Z,60.03
2022-09-14T11:27:09.946Z,60.45
2022-09-14T11:30:37.162Z,60.50
2022-09-14T11:33:56.502Z,62.06
2022-09-14T11:36:56.146Z,63.01
2022-09-14T11:39:51.140Z,63.61
2022-09-14T11:43:16.912Z,59.14
2022-09-14T11:46:14.113Z,58.82
2022-09-14T11:49:30.084Z,58.73
2022-09-14T11:52:21.959Z,58.30
2022-09-14T11:55:12.157Z,57.52
2022-09-14T11:58:05.198Z,57.97
2022-09-14T12:00:52.480Z,59.84
2022-09-14T12:04:25.163Z,58.65
2022-09-14T12:07:08.535Z,58.77
2022-09-14T12:09:59.156Z,59.63
2022-09-14T12:12:46.458Z,59.30
2022-09-14T12:15:37.241Z,58.30
2022-09-14T12:18:20.565Z,57.85
2022-09-14T12:21:26.143Z,57.57
2022-09-14T12:24:23.526Z,58.41
2022-09-14T12:27:29.191Z,58.77
2022-09-14T12:30:52.237Z,59.05
2022-09-14T12:33:34.412Z,58.58
2022-09-14T12:36:52.156Z,58.93
2022-09-14T12:39:37.784Z,57.50
2022-09-14T12:42:42.181Z,60.31
2022-09-14T12:45:51.247Z,57.93
2022-09-14T12:49:03.184Z,58.91
2022-09-14T12:51:59.184Z,59.15
2022-09-14T12:54:52.562Z,60.11
2022-09-14T12:58:11.173Z,57.94
2022-09-14T13:01:22.199Z,59.87
2022-09-14T13:04:20.217Z,57.70
2022-09-14T13:07:06.905Z,56.96
2022-09-14T13:09:54.517Z,58.50
2022-09-14T13:13:03.972Z,60.64
2022-09-14T13:16:12.111Z,61.16
2022-09-14T13:18:56.215Z,61.14
2022-09-14T13:21:58.466Z,61.26
2022-09-14T13:24:51.536Z,61.77
2022-09-14T13:27:46.082Z,61.94
2022-09-14T13:30:47.945Z,62.14
2022-09-14T13:33:34.581Z,62.63
2022-09-14T13:36:23.172Z,63.08
2022-09-14T13:39:33.069Z,63.20
2022-09-14T13:42:25.215Z,63.43
2022-09-14T13:45:30.011Z,63.77
2022-09-14T13:48:24.140Z,64.03
2022-09-14T13:51:10.599Z,64.46
2022-09-14T13:54:06.163Z,64.72
2022-09-14T13:56:55.171Z,65.10
2022-09-14T13:59:38.563Z,65.22
2022-09-14T14:02:31.181Z,65.94
2022-09-14T14:05:38.187Z,66.05
2022-09-14T14:08:55.671Z,66.43
2022-09-14T14:11:54.882Z,66.30
2022-09-14T14:14:46.095Z,66.18
2022-09-14T14:17:47.188Z,66.56
2022-09-14T14:20:47.164Z,66.87
2022-09-14T14:23:30.678Z,66.87
2022-09-14T14:26:49.707Z,66.77
2022-09-14T14:29:46.590Z,67.99
2022-09-14T14:32:36.173Z,67.70
2022-09-14T14:35:28.504Z,67.18
2022-09-14T14:38:20.169Z,67.39
2022-09-14T14:41:04.596Z,67.41
2022-09-14T14:43:59.715Z,67.89
2022-09-14T14:46:44.961Z,67.67
2022-09-14T14:49:34.214Z,67.52
2022-09-14T14:52:18.495Z,67.84
2022-09-14T14:55:07.069Z,68.83
2022-09-14T14:57:49.622Z,67.91
2022-09-14T15:00:46.122Z,68.32
2022-09-14T15:03:38.658Z,67.94
2022-09-14T15:06:34.035Z,67.87
2022-09-14T15:09:28.299Z,68.83
2022-09-14T15:12:18.153Z,69.03
2022-09-14T15:15:06.363Z,68.73
2022-09-14T15:17:56.952Z,69.01
2022-09-14T15:20:40.444Z,69.24
2022-09-14T15:23:30.427Z,68.69
2022-09-14T15:26:14.042Z,68.53
2022-09-14T15:29:10.184Z,69.42
2022-09-14T15:32:07.098Z,69.24
2022-09-14T15:34:58.235Z,68.73
2022-09-14T15:37:42.952Z,69.02
2022-09-14T15:40:28.789Z,68.79
2022-09-14T15:43:20.580Z,68.62
2022-09-14T15:46:12.252Z,69.49
2022-09-14T15:49:04.863Z,69.77
2022-09-14T15:52:00.069Z,69.85
2022-09-14T15:54:55.187Z,69.48
2022-09-14T15:57:45.154Z,69.29
2022-09-14T16:00:28.949Z,69.18
2022-09-14T16:03:24.812Z,69.86
2022-09-14T16:06:08.492Z,70.04
2022-09-14T16:08:58.180Z,69.18
2022-09-14T16:11:42.486Z,69.76
2022-09-14T16:14:33.072Z,70.19
2022-09-14T16:17:18.490Z,70.25
2022-09-14T16:20:09.058Z,70.59
2022-09-14T16:22:52.653Z,70.79
2022-09-14T16:25:50.178Z,70.92
2022-09-14T16:28:32.508Z,70.57
2022-09-14T16:31:34.124Z,70.71
2022-09-14T16:34:28.189Z,70.71
2022-09-14T16:37:23.822Z,70.41
2022-09-14T16:40:07.252Z,70.65
2022-09-14T16:42:56.160Z,70.99
2022-09-14T16:45:47.197Z,70.95
2022-09-14T16:48:32.432Z,71.51
2022-09-14T16:51:23.193Z,71.57
2022-09-14T16:54:08.142Z,70.95
2022-09-14T16:57:00.142Z,70.78
2022-09-14T16:59:42.616Z,70.57
2022-09-14T17:02:31.108Z,70.98
2022-09-14T17:05:13.552Z,71.03
2022-09-14T17:08:03.720Z,70.70
2022-09-14T17:10:53.176Z,71.23
2022-09-14T17:13:38.846Z,71.34
2022-09-14T17:16:35.258Z,71.65
2022-09-14T17:19:24.187Z,70.96
2022-09-14T17:22:15.654Z,71.78
2022-09-14T17:24:59.175Z,71.65
2022-09-14T17:27:47.481Z,71.96
2022-09-14T17:30:43.497Z,71.91
2022-09-14T17:33:36.845Z,72.17
2022-09-14T17:36:22.120Z,71.77
2022-09-14T17:39:18.636Z,71.26
2022-09-14T17:42:01.211Z,71.34
2022-09-14T17:44:44.749Z,71.26
2022-09-14T17:47:39.151Z,70.40
2022-09-14T17:50:22.192Z,70.73
2022-09-14T17:53:11.267Z,71.56
2022-09-14T17:56:00.469Z,72.37
2022-09-14T17:58:44.100Z,72.00
2022-09-14T18:01:34.141Z,72.38
2022-09-14T18:04:19.605Z,72.28
2022-09-14T18:07:08.062Z,72.70
2022-09-14T18:09:50.669Z,73.44
2022-09-14T18:12:44.041Z,73.58
2022-09-14T18:15:38.195Z,73.55
2022-09-14T18:18:31.967Z,73.67
2022-09-14T18:21:23.147Z,75.03
2022-09-14T18:24:12.744Z,74.47
2022-09-14T18:26:58.092Z,74.76
2022-09-14T18:29:50.114Z,74.91
2022-09-14T18:32:45.131Z,75.94
2022-09-14T18:35:35.497Z,75.93
2022-09-14T18:38:21.104Z,76.12
2022-09-14T18:41:15.916Z,76.37
2022-09-14T18:44:00.923Z,76.37
2022-09-14T18:46:45.435Z,76.53
2022-09-14T18:49:35.159Z,76.52
2022-09-14T18:52:20.906Z,77.34
2022-09-14T18:55:13.645Z,77.12
2022-09-14T18:58:02.122Z,78.09
2022-09-14T19:00:54.265Z,78.47
2022-09-14T19:03:43.709Z,77.93
2022-09-14T19:06:27.109Z,77.27
2022-09-14T19:09:09.545Z,77.66
2022-09-14T19:11:58.129Z,77.81
2022-09-14T19:14:40.863Z,77.33
2022-09-14T19:17:30.550Z,77.61
2022-09-14T19:20:12.833Z,77.40
2022-09-14T19:23:04.188Z,77.85
2022-09-14T19:25:46.494Z,78.28
2022-09-14T19:28:35.015Z,78.21
2022-09-14T19:31:32.938Z,78.14
2022-09-14T19:34:28.068Z,78.10
2022-09-14T19:37:17.080Z,78.14
2022-09-14T19:40:06.064Z,78.44
2022-09-14T19:42:48.327Z,78.22
2022-09-14T19:45:37.034Z,78.21
2022-09-14T19:48:19.767Z,77.90
2022-09-14T19:51:12.017Z,78.01
2022-09-14T19:54:03.401Z,78.64
2022-09-14T19:56:46.120Z,78.53
2022-09-14T19:59:35.516Z,78.54
2022-09-14T20:02:20.247Z,78.07
2022-09-14T20:05:02.559Z,78.77
2022-09-14T20:07:51.115Z,78.70
2022-09-14T20:10:40.151Z,78.96
2022-09-14T20:13:22.372Z,78.75
2022-09-14T20:16:25.697Z,79.01
2022-09-14T20:19:15.379Z,78.50
2022-09-14T20:22:01.823Z,78.72
2022-09-14T20:24:52.085Z,79.32
2022-09-14T20:27:34.391Z,79.49
2022-09-14T20:30:22.942Z,79.68
2022-09-14T20:33:17.924Z,79.22
2022-09-14T20:36:12.974Z,78.38
2022-09-14T20:38:58.505Z,79.35
2022-09-14T20:41:47.070Z,78.90
2022-09-14T20:44:36.994Z,78.54
2022-09-14T20:47:19.858Z,77.53
2022-09-14T20:50:08.998Z,77.49
2022-09-14T20:52:51.278Z,77.37
2022-09-14T20:55:40.030Z,77.44
2022-09-14T20:58:22.380Z,78.14
2022-09-14T21:01:32.014Z,77.70
2022-09-14T21:04:17.278Z,77.64
2022-09-14T21:07:08.997Z,77.42
2022-09-14T21:09:58.102Z,78.06
2022-09-14T21:12:40.344Z,77.69
2022-09-14T21:15:29.122Z,77.35
2022-09-14T21:18:11.362Z,77.52
2022-09-14T21:21:02.824Z,78.16
2022-09-14T21:23:45.459Z,77.85
2022-09-14T21:26:36.723Z,77.90
2022-09-14T21:29:34.039Z,77.24
2022-09-14T21:32:16.243Z,77.39
2022-09-14T21:35:12.049Z,77.63
2022-09-14T21:38:00.341Z,77.88
2022-09-14T21:40:44.968Z,77.98
2022-09-14T21:43:33.939Z,78.61
2022-09-14T21:46:17.392Z,77.92
2022-09-14T21:49:05.963Z,77.96
2022-09-14T21:51:48.594Z,78.18
2022-09-14T21:54:37.051Z,77.95
2022-09-14T21:57:19.385Z,77.77
2022-09-14T22:00:08.047Z,78.42
2022-09-14T22:02:50.380Z,78.02
2022-09-14T22:05:38.946Z,78.36
2022-09-14T22:08:27.935Z,77.93
2022-09-14T22:11:23.053Z,77.94
2022-09-14T22:14:20.962Z,77.69
2022-09-14T22:17:09.344Z,76.49
2022-09-14T22:19:52.049Z,76.28
2022-09-14T22:22:41.021Z,76.25
2022-09-14T22:25:26.048Z,76.28
2022-09-14T22:28:15.104Z,75.29
2022-09-14T22:31:02.463Z,75.01
2022-09-14T22:33:51.221Z,75.23
2022-09-14T22:36:48.054Z,75.71
2022-09-14T22:39:36.951Z,75.77
2022-09-14T22:42:26.021Z,75.89
2022-09-14T22:45:08.581Z,75.89
2022-09-14T22:47:57.039Z,75.41
2022-09-14T22:50:45.371Z,75.65
2022-09-14T22:53:29.040Z,74.75
2022-09-14T22:56:18.347Z,75.01
2022-09-14T22:59:00.950Z,75.49
2022-09-14T23:01:50.158Z,75.01
2022-09-14T23:04:32.873Z,73.89
2022-09-14T23:07:22.048Z,73.79
2022-09-14T23:10:10.959Z,74.15
2022-09-14T23:13:00.051Z,74.10
2022-09-14T23:15:47.241Z,75.35
2022-09-14T23:18:36.029Z,73.73
2022-09-14T23:21:26.017Z,73.77
2022-09-14T23:24:15.046Z,74.05
2022-09-14T23:26:57.372Z,73.81
2022-09-14T23:29:45.957Z,74.30
2022-09-14T23:32:34.946Z,73.90
2022-09-14T23:35:29.966Z,73.98
2022-09-14T23:38:12.229Z,74.81
2022-09-14T23:41:00.926Z,74.58
2022-09-14T23:43:43.734Z,74.49
2022-09-14T23:46:33.932Z,74.23
2022-09-14T23:49:24.017Z,73.96
2022-09-14T23:52:05.929Z,73.49
2022-09-14T23:54:54.436Z,74.24
2022-09-14T23:57:37.090Z,74.53
